createdAt,value
2022-10-16T00:01:27.336Z,100282.38
2022-10-16T00:06:32.475Z,100265.63
2022-10-16T00:11:39.062Z,100288.31
2022-10-16T00:16:45.034Z,100296.78
2022-10-16T00:21:49.319Z,100303.56
2022-10-16T00:27:12.290Z,100289.44
2022-10-16T00:32:17.146Z,100295.38
2022-10-16T00:37:21.137Z,100299.47
2022-10-16T00:42:25.033Z,100303.69
2022-10-16T00:47:35.176Z,100307.06
2022-10-16T00:52:41.719Z,100310.13
2022-10-16T00:57:47.092Z,100312.31
2022-10-16T01:02:56.246Z,100313.81
2022-10-16T01:08:07.825Z,100312.75
2022-10-16T01:13:14.804Z,100312.88
2022-10-16T01:18:28.691Z,100312.06
2022-10-16T01:23:43.320Z,100318.13
2022-10-16T01:28:56.009Z,100321.91
2022-10-16T01:34:04.951Z,100316.63
2022-10-16T01:39:13.770Z,100322.72
2022-10-16T01:44:22.843Z,100323.59
2022-10-16T01:49:30.810Z,100327.59
2022-10-16T01:54:37.446Z,100328.53
2022-10-16T01:59:47.148Z,100325.53
2022-10-16T02:04:55.680Z,100329.03
2022-10-16T02:09:59.883Z,100321.38
2022-10-16T02:15:05.230Z,100328.34
2022-10-16T02:20:09.898Z,100328.09
2022-10-16T02:25:20.397Z,100331.22
2022-10-16T02:30:30.278Z,100325.69
2022-10-16T02:35:34.617Z,100349.59
2022-10-16T02:40:39.440Z,100350.13
2022-10-16T02:45:45.171Z,100349.00
2022-10-16T02:50:49.231Z,100345.13
2022-10-16T02:55:52.582Z,100347.88
2022-10-16T03:00:58.283Z,100347.63
2022-10-16T03:06:02.404Z,100347.41
2022-10-16T03:11:06.528Z,100349.84
2022-10-16T03:16:12.062Z,100355.09
2022-10-16T03:21:18.527Z,100347.88
2022-10-16T03:26:22.575Z,100357.16
2022-10-16T03:31:28.081Z,100360.41
2022-10-16T03:36:32.333Z,100358.50
2022-10-16T03:41:36.408Z,100373.91
2022-10-16T03:46:42.101Z,100371.91
2022-10-16T03:51:46.185Z,100372.50
2022-10-16T03:56:49.464Z,100368.28
2022-10-16T04:01:54.895Z,100370.06
2022-10-16T04:06:58.946Z,100379.47
2022-10-16T04:12:02.920Z,100372.72
2022-10-16T04:17:08.347Z,100375.94
2022-10-16T04:22:11.623Z,100374.59
2022-10-16T04:27:15.646Z,100371.31
2022-10-16T04:32:20.342Z,100380.38
2022-10-16T04:37:26.395Z,100383.16
2022-10-16T04:42:29.955Z,100380.44
2022-10-16T04:47:35.354Z,100383.28
2022-10-16T04:52:38.726Z,100392.78
2022-10-16T04:57:43.571Z,100386.97
2022-10-16T05:02:48.139Z,100395.22
2022-10-16T05:07:52.500Z,100399.94
2022-10-16T05:12:55.843Z,100390.81
2022-10-16T05:18:01.349Z,100387.94
2022-10-16T05:23:04.788Z,100394.75
2022-10-16T05:28:08.848Z,100398.91
2022-10-16T05:33:13.582Z,100403.38
2022-10-16T05:38:17.979Z,100408.97
2022-10-16T05:43:21.639Z,100409.81
2022-10-16T05:48:27.731Z,100403.28
2022-10-16T05:53:32.389Z,100402.84
2022-10-16T05:58:38.019Z,100402.25
2022-10-16T06:03:42.954Z,100410.41
2022-10-16T06:08:48.284Z,100410.09
2022-10-16T06:13:52.586Z,100405.34
2022-10-16T06:18:59.146Z,100407.91
2022-10-16T06:24:03.240Z,100405.78
2022-10-16T06:29:07.839Z,100406.56
2022-10-16T06:34:13.224Z,100406.34
2022-10-16T06:39:17.292Z,100418.09
2022-10-16T06:44:20.594Z,100418.91
2022-10-16T06:49:26.103Z,100406.03
2022-10-16T06:54:29.578Z,100417.94
2022-10-16T06:59:33.595Z,100414.25
2022-10-16T07:04:39.407Z,100411.69
2022-10-16T07:09:43.803Z,100418.91
2022-10-16T07:14:47.182Z,100414.00
2022-10-16T07:19:54.951Z,100413.78
2022-10-16T07:24:58.233Z,100422.47
2022-10-16T07:30:05.229Z,100420.44
2022-10-16T07:35:13.730Z,100433.78
2022-10-16T07:40:17.931Z,100427.84
2022-10-16T07:45:22.051Z,100424.09
2022-10-16T07:50:27.475Z,100430.28
2022-10-16T07:55:30.818Z,100425.13
2022-10-16T08:00:35.137Z,100428.13
2022-10-16T08:05:40.708Z,100430.03
2022-10-16T08:10:44.979Z,100436.34
2022-10-16T08:15:49.461Z,100430.97
2022-10-16T08:21:00.298Z,100416.31
2022-10-16T08:26:10.176Z,100417.78
2022-10-16T08:36:24.236Z,100390.25
2022-10-16T08:41:56.401Z,100396.25
2022-10-16T08:47:11.466Z,100401.88
2022-10-16T08:52:16.423Z,100399.41
2022-10-16T08:57:24.592Z,100396.94
2022-10-16T09:02:34.506Z,100404.28
2022-10-16T09:07:50.040Z,100414.78
2022-10-16T09:13:03.296Z,100409.06
2022-10-16T09:18:15.940Z,100409.19
2022-10-16T09:23:24.039Z,100393.63
2022-10-16T09:28:28.332Z,100397.13
2022-10-16T09:33:36.441Z,100389.25
2022-10-16T09:38:42.003Z,100378.78
2022-10-16T09:43:54.110Z,100387.56
2022-10-16T09:48:59.949Z,100375.38
2022-10-16T09:54:16.542Z,100367.47
2022-10-16T09:59:22.893Z,100371.00
2022-10-16T10:04:29.497Z,100360.56
2022-10-16T10:09:40.555Z,100364.06
2022-10-16T10:14:47.070Z,100364.03
2022-10-16T10:19:54.306Z,100361.38
2022-10-16T10:25:22.084Z,100364.84
2022-10-16T10:30:30.457Z,100362.19
2022-10-16T10:35:47.025Z,100352.53
2022-10-16T10:41:00.231Z,100351.69
2022-10-16T10:46:07.363Z,100343.91
2022-10-16T10:51:16.654Z,100337.81
2022-10-16T10:56:40.315Z,100347.31
2022-10-16T11:01:53.301Z,100341.19
2022-10-16T11:07:03.278Z,100337.81
2022-10-16T11:12:17.286Z,100333.47
2022-10-16T11:17:27.160Z,100338.75
2022-10-16T11:22:36.824Z,100340.44
2022-10-16T11:27:45.909Z,100342.13
2022-10-16T11:33:03.005Z,100339.53
2022-10-16T11:38:15.596Z,100338.69
2022-10-16T11:43:31.178Z,100342.22
2022-10-16T11:48:42.970Z,100330.91
2022-10-16T11:53:53.275Z,100345.69
2022-10-16T11:59:04.496Z,100329.94
2022-10-16T12:04:21.217Z,100327.38
2022-10-16T12:09:33.705Z,100329.97
2022-10-16T12:15:11.435Z,100321.25
2022-10-16T12:20:27.784Z,100322.06
2022-10-16T12:25:34.444Z,100314.22
2022-10-16T12:30:40.305Z,100317.72
2022-10-16T12:35:47.664Z,100304.63
2022-10-16T12:41:00.777Z,100321.06
2022-10-16T12:46:23.393Z,100311.44
2022-10-16T12:51:37.655Z,100318.47
2022-10-16T12:56:55.909Z,100320.88
2022-10-16T13:02:20.162Z,100315.78
2022-10-16T13:07:40.283Z,100320.03
2022-10-16T13:13:14.443Z,100314.78
2022-10-16T13:18:25.749Z,100306.06
2022-10-16T13:23:36.129Z,100324.25
2022-10-16T13:28:42.055Z,100313.81
2022-10-16T13:33:51.725Z,100307.69
2022-10-16T13:39:14.827Z,100307.63
2022-10-16T13:44:22.819Z,100307.56
2022-10-16T13:49:28.482Z,100300.50
2022-10-16T13:54:34.044Z,100303.81
2022-10-16T13:59:40.819Z,100300.25
2022-10-16T14:04:45.704Z,100298.34
2022-10-16T14:09:53.078Z,100300.84
2022-10-16T14:14:57.907Z,100297.09
2022-10-16T14:20:06.663Z,100306.50
2022-10-16T14:25:28.502Z,100311.38
2022-10-16T14:30:34.137Z,100309.56
2022-10-16T14:35:42.911Z,100302.38
2022-10-16T14:40:52.008Z,100294.41
2022-10-16T14:45:59.825Z,100308.16
2022-10-16T14:51:05.289Z,100305.41
2022-10-16T14:56:09.957Z,100310.44
2022-10-16T15:01:14.372Z,100312.00
2022-10-16T15:06:19.999Z,100304.91
2022-10-16T15:11:24.120Z,100311.69
2022-10-16T15:16:28.278Z,100303.72
2022-10-16T15:21:35.666Z,100307.81
2022-10-16T15:26:40.028Z,100311.09
2022-10-16T15:31:44.489Z,100315.34
2022-10-16T15:36:50.289Z,100302.19
2022-10-16T15:41:55.095Z,100290.66
2022-10-16T15:47:00.505Z,100291.47
2022-10-16T15:52:06.829Z,100291.28
2022-10-16T15:57:10.287Z,100295.50
2022-10-16T16:02:13.662Z,100297.06
2022-10-16T16:07:19.544Z,100301.34
2022-10-16T16:12:24.448Z,100306.50
2022-10-16T16:17:28.764Z,100309.91
2022-10-16T16:22:33.571Z,100316.66
2022-10-16T16:27:40.068Z,100309.44
2022-10-16T16:32:43.767Z,100307.63
2022-10-16T16:37:50.152Z,100299.03
2022-10-16T16:42:53.822Z,100294.53
2022-10-16T16:47:57.959Z,100294.44
2022-10-16T16:53:03.432Z,100311.75
2022-10-16T16:58:07.747Z,100310.63
2022-10-16T17:03:11.705Z,100307.94
2022-10-16T17:08:17.361Z,100301.81
2022-10-16T17:13:20.866Z,100286.81
2022-10-16T17:18:29.085Z,100297.16
2022-10-16T17:23:34.678Z,100305.72
2022-10-16T17:28:38.964Z,100301.44
2022-10-16T17:33:42.384Z,100309.97
2022-10-16T17:38:48.942Z,100315.91
2022-10-16T17:43:53.374Z,100322.81
2022-10-16T17:48:57.674Z,100319.28
2022-10-16T17:54:02.933Z,100310.56
2022-10-16T17:59:07.811Z,100312.06
2022-10-16T18:04:15.018Z,100323.03
2022-10-16T18:09:22.621Z,100313.69
2022-10-16T18:14:25.925Z,100318.88
2022-10-16T18:19:29.910Z,100301.69
2022-10-16T18:24:36.814Z,100301.72
2022-10-16T18:29:40.840Z,100308.66
2022-10-16T18:34:46.533Z,100305.19
2022-10-16T18:39:52.596Z,100312.97
2022-10-16T18:44:55.866Z,100303.66
2022-10-16T18:50:00.204Z,100304.53
2022-10-16T18:55:06.347Z,100299.22
2022-10-16T19:00:11.763Z,100294.00
2022-10-16T19:05:16.229Z,100287.09
2022-10-16T19:10:21.796Z,100292.38
2022-10-16T19:15:25.857Z,100283.69
2022-10-16T19:20:30.618Z,100269.59
2022-10-16T19:25:38.764Z,100267.78
2022-10-16T19:30:47.023Z,100272.09
2022-10-16T19:35:51.118Z,100272.28
2022-10-16T19:40:56.642Z,100265.31
2022-10-16T19:46:05.361Z,100258.22
2022-10-16T19:51:12.910Z,100265.88
2022-10-16T19:56:21.486Z,100271.94
2022-10-16T20:01:27.586Z,100274.75
2022-10-16T20:06:31.892Z,100278.06
2022-10-16T20:11:38.449Z,100278.09
2022-10-16T20:16:42.614Z,100279.53
2022-10-16T20:21:46.735Z,100278.78
2022-10-16T20:26:52.358Z,100277.66
2022-10-16T20:31:56.697Z,100269.91
2022-10-16T20:37:00.729Z,100272.13
2022-10-16T20:42:06.265Z,100273.94
2022-10-16T20:47:10.271Z,100279.97
2022-10-16T20:52:13.691Z,100272.84
2022-10-16T20:57:18.517Z,100266.75
2022-10-16T21:07:27.204Z,100268.28
2022-10-16T21:12:32.076Z,100261.38
2022-10-16T21:17:36.181Z,100256.16
2022-10-16T21:22:39.441Z,100253.56
2022-10-16T21:27:45.007Z,100245.66
2022-10-16T21:32:48.252Z,100240.34
2022-10-16T21:37:52.333Z,100244.31
2022-10-16T21:42:57.562Z,100243.22
2022-10-16T21:48:02.006Z,100255.47
2022-10-16T21:53:06.173Z,100259.59
2022-10-16T21:58:11.646Z,100244.84
2022-10-16T22:03:15.022Z,100249.16
2022-10-16T22:08:19.067Z,100250.06
2022-10-16T22:13:23.829Z,100247.66
2022-10-16T22:18:27.944Z,100250.06
2022-10-16T22:23:31.270Z,100250.06
2022-10-16T22:28:37.590Z,100247.09
2022-10-16T22:33:41.341Z,100240.94
2022-10-16T22:38:45.408Z,100238.97
2022-10-16T22:43:51.030Z,100243.31
2022-10-16T22:48:56.212Z,100246.81
2022-10-16T22:53:59.870Z,100239.03
2022-10-16T22:59:05.556Z,100237.38
2022-10-16T23:04:09.342Z,100236.59
2022-10-16T23:09:13.583Z,100232.22
2022-10-16T23:14:22.538Z,100219.25
2022-10-16T23:19:26.636Z,100201.97
2022-10-16T23:24:31.855Z,100213.09
2022-10-16T23:29:37.721Z,100197.84
2022-10-16T23:34:41.098Z,100220.09
2022-10-16T23:39:45.102Z,100212.56
2022-10-16T23:44:49.794Z,100209.22
2022-10-16T23:49:54.056Z,100195.09
2022-10-16T23:54:57.390Z,100202.09
